Aérodrome :
LOGIN :

S'inscrire | Disclaimer

   EN    FR    IT 

 










Légende :    VFR   VFR Marginal   IFR   IFR Intensif   IFR Très Intensif
Visi : 
Plafond : 
>= 8 km
>= 3000ft
5 à 8 km
1000 à 3000 ft
1500m à 5 km
500 à 1000 ft
800 à 1500m
200 à 500 ft
< 800m
< 200 ft
Symboles :   Orages  Brouillard  Fortes neiges  Fortes précipitations  Vent > 20 kt
SIGMETs :   Divers  Orages  Givrage  Turbulence  Onde Orograph.  Cendres Volcan.






- Altitude de l'aérodrome : 529 ft
- Code IATA : CHR


LFLX - Chateauroux

DERNIER METAR :
  • 210200Z AUTO 23008KT 8000 BKN006 OVC010 10/10 Q1013 TEMPO 2500 -RA BKN004

METARs EXPIRÉS :
  • 210130Z AUTO 24010KT 5000 -DZ BR BKN004 OVC008 10/10 Q1013 TEMPO 2500 -RA
  • 210100Z AUTO 25011KT 9999 OVC004 11/10 Q1012 TEMPO 2500 -RA
  • 210030Z AUTO 24010KT 9999 OVC004 11/10 Q1011 TEMPO 2500 -RA
  • 210000Z AUTO 24009KT 6000 OVC005 11/10 Q1011 TEMPO 2500 -RA
  • 202330Z AUTO 24011KT 8000 OVC005 11/10 Q1010 TEMPO 2500 -RA

TAF TAF LFLX
Valide du 21 à 00h jusqu'au 22 à 06h UTC


202300Z 2100/2206 24008KT 9999 BKN006
TEMPO 2100/2104 2500 -RA BKN004
BECMG 2109/2112 VRB05KT SCT030
TEMPO 2112/2117 BKN040
BECMG 2117/2120 03005KT CAVOK
TEMPO 2120/2206 2500 BR
PROB40
TEMPO 2203/2206 0800 FG BKN003



MET'MAP, la Météo Aéronautique d'un coup d'oeil ! - Copyright ORBIFLY Décembre 2007 - Disclaimer

ORBIFLY MET'MAP TEAM :

Programmation & Développement : Alexandra Zaïnal
Conception & Développement : Baudouin d'Aumeries
Co-Programmation & Développement : Marc-Olivier Méhu
Soutien technique & logistique : Manuel Goepfert

Contact : metmap@orbifly.com




SOURCES & CREDITS :

   NOAA